sensor_id;sensor_type;location;lat;lon;timestamp;P1;durP1;ratioP1;P2;durP2;ratioP2
10867;SDS011;62667;48.698;8.762;2024-02-15T00:02:19;1.67;;;1.57;;
10867;SDS011;62667;48.698;8.762;2024-02-15T00:04:46;5.83;;;1.60;;
10867;SDS011;62667;48.698;8.762;2024-02-15T00:07:13;1.53;;;1.33;;
10867;SDS011;62667;48.698;8.762;2024-02-15T00:09:39;1.73;;;1.57;;
10867;SDS011;62667;48.698;8.762;2024-02-15T00:12:07;1.70;;;1.60;;
10867;SDS011;62667;48.698;8.762;2024-02-15T00:14:35;2.67;;;1.47;;
10867;SDS011;62667;48.698;8.762;2024-02-15T00:17:03;1.80;;;1.50;;
10867;SDS011;62667;48.698;8.762;2024-02-15T00:19:30;1.33;;;1.20;;
10867;SDS011;62667;48.698;8.762;2024-02-15T00:21:57;1.50;;;1.33;;
10867;SDS011;62667;48.698;8.762;2024-02-15T00:24:23;2.47;;;1.53;;
10867;SDS011;62667;48.698;8.762;2024-02-15T00:26:50;2.73;;;1.70;;
10867;SDS011;62667;48.698;8.762;2024-02-15T00:29:18;2.40;;;1.60;;
10867;SDS011;62667;48.698;8.762;2024-02-15T00:31:45;3.33;;;1.70;;
10867;SDS011;62667;48.698;8.762;2024-02-15T00:34:12;5.83;;;1.70;;
10867;SDS011;62667;48.698;8.762;2024-02-15T00:36:41;2.80;;;1.73;;
10867;SDS011;62667;48.698;8.762;2024-02-15T00:39:08;5.47;;;1.60;;
10867;SDS011;62667;48.698;8.762;2024-02-15T00:41:36;2.37;;;1.60;;
10867;SDS011;62667;48.698;8.762;2024-02-15T00:44:06;5.03;;;1.80;;
10867;SDS011;62667;48.698;8.762;2024-02-15T00:46:35;2.73;;;1.80;;
10867;SDS011;62667;48.698;8.762;2024-02-15T00:49:02;18.53;;;6.43;;
10867;SDS011;62667;48.698;8.762;2024-02-15T00:51:31;6.53;;;2.50;;
10867;SDS011;62667;48.698;8.762;2024-02-15T00:53:58;4.70;;;1.83;;
10867;SDS011;62667;48.698;8.762;2024-02-15T00:56:24;2.60;;;1.70;;
10867;SDS011;62667;48.698;8.762;2024-02-15T00:58:51;6.53;;;1.90;;
10867;SDS011;62667;48.698;8.762;2024-02-15T01:01:18;2.53;;;1.90;;
10867;SDS011;62667;48.698;8.762;2024-02-15T01:03:45;4.17;;;1.90;;
10867;SDS011;62667;48.698;8.762;2024-02-15T01:06:12;2.93;;;1.90;;
10867;SDS011;62667;48.698;8.762;2024-02-15T01:08:39;2.63;;;1.80;;
10867;SDS011;62667;48.698;8.762;2024-02-15T01:11:05;4.03;;;1.63;;
10867;SDS011;62667;48.698;8.762;2024-02-15T01:13:32;2.60;;;1.80;;
10867;SDS011;62667;48.698;8.762;2024-02-15T01:15:59;4.60;;;2.00;;
10867;SDS011;62667;48.698;8.762;2024-02-15T01:18:28;1.80;;;1.57;;
10867;SDS011;62667;48.698;8.762;2024-02-15T01:20:56;3.60;;;1.80;;
10867;SDS011;62667;48.698;8.762;2024-02-15T01:23:22;1.67;;;1.50;;
10867;SDS011;62667;48.698;8.762;2024-02-15T01:25:49;2.67;;;1.90;;
10867;SDS011;62667;48.698;8.762;2024-02-15T01:28:16;3.00;;;1.70;;
10867;SDS011;62667;48.698;8.762;2024-02-15T01:30:43;1.67;;;1.50;;
10867;SDS011;62667;48.698;8.762;2024-02-15T01:33:11;3.47;;;1.83;;
10867;SDS011;62667;48.698;8.762;2024-02-15T01:35:37;2.30;;;1.83;;
10867;SDS011;62667;48.698;8.762;2024-02-15T01:38:06;2.23;;;1.77;;
10867;SDS011;62667;48.698;8.762;2024-02-15T01:40:32;3.67;;;1.77;;
10867;SDS011;62667;48.698;8.762;2024-02-15T01:43:00;3.07;;;1.60;;
10867;SDS011;62667;48.698;8.762;2024-02-15T01:45:26;2.70;;;2.00;;
10867;SDS011;62667;48.698;8.762;2024-02-15T01:47:53;3.30;;;1.70;;
10867;SDS011;62667;48.698;8.762;2024-02-15T01:50:21;2.03;;;1.60;;
10867;SDS011;62667;48.698;8.762;2024-02-15T01:52:49;3.27;;;1.60;;
10867;SDS011;62667;48.698;8.762;2024-02-15T01:55:20;2.40;;;1.87;;
10867;SDS011;62667;48.698;8.762;2024-02-15T01:57:47;3.17;;;1.63;;
10867;SDS011;62667;48.698;8.762;2024-02-15T02:00:15;3.37;;;1.40;;
10867;SDS011;62667;48.698;8.762;2024-02-15T02:02:45;8.93;;;1.70;;
10867;SDS011;62667;48.698;8.762;2024-02-15T02:05:12;2.13;;;1.63;;
10867;SDS011;62667;48.698;8.762;2024-02-15T02:07:38;3.03;;;1.50;;
10867;SDS011;62667;48.698;8.762;2024-02-15T02:10:05;2.20;;;1.47;;
10867;SDS011;62667;48.698;8.762;2024-02-15T02:12:35;1.90;;;1.70;;
10867;SDS011;62667;48.698;8.762;2024-02-15T02:15:02;2.27;;;1.80;;
10867;SDS011;62667;48.698;8.762;2024-02-15T02:17:30;2.47;;;1.80;;
10867;SDS011;62667;48.698;8.762;2024-02-15T02:19:56;2.90;;;2.37;;
10867;SDS011;62667;48.698;8.762;2024-02-15T02:22:23;2.10;;;1.90;;
10867;SDS011;62667;48.698;8.762;2024-02-15T02:24:59;1.87;;;1.77;;
10867;SDS011;62667;48.698;8.762;2024-02-15T02:27:28;1.53;;;1.43;;
10867;SDS011;62667;48.698;8.762;2024-02-15T02:29:56;1.80;;;1.70;;
10867;SDS011;62667;48.698;8.762;2024-02-15T02:32:24;1.70;;;1.57;;
10867;SDS011;62667;48.698;8.762;2024-02-15T02:34:51;1.50;;;1.40;;
10867;SDS011;62667;48.698;8.762;2024-02-15T02:37:19;1.70;;;1.60;;
10867;SDS011;62667;48.698;8.762;2024-02-15T02:39:46;1.60;;;1.50;;
10867;SDS011;62667;48.698;8.762;2024-02-15T02:42:14;2.07;;;1.70;;
10867;SDS011;62667;48.698;8.762;2024-02-15T02:44:40;4.67;;;2.00;;
10867;SDS011;62667;48.698;8.762;2024-02-15T02:47:07;2.73;;;1.87;;
10867;SDS011;62667;48.698;8.762;2024-02-15T02:49:34;3.07;;;2.07;;
10867;SDS011;62667;48.698;8.762;2024-02-15T02:52:02;4.47;;;2.40;;
10867;SDS011;62667;48.698;8.762;2024-02-15T02:54:29;4.83;;;2.57;;
10867;SDS011;62667;48.698;8.762;2024-02-15T02:56:56;4.13;;;2.20;;
10867;SDS011;62667;48.698;8.762;2024-02-15T02:59:24;4.10;;;2.30;;
10867;SDS011;62667;48.698;8.762;2024-02-15T03:01:50;4.83;;;2.27;;
10867;SDS011;62667;48.698;8.762;2024-02-15T03:04:21;2.27;;;1.93;;
10867;SDS011;62667;48.698;8.762;2024-02-15T03:06:48;3.00;;;2.27;;
10867;SDS011;62667;48.698;8.762;2024-02-15T03:09:14;2.00;;;1.80;;
10867;SDS011;62667;48.698;8.762;2024-02-15T03:11:41;2.37;;;1.97;;
10867;SDS011;62667;48.698;8.762;2024-02-15T03:14:08;3.00;;;1.90;;
10867;SDS011;62667;48.698;8.762;2024-02-15T03:16:36;1.97;;;1.57;;
10867;SDS011;62667;48.698;8.762;2024-02-15T03:19:03;6.60;;;2.07;;
10867;SDS011;62667;48.698;8.762;2024-02-15T03:21:29;2.70;;;1.90;;
10867;SDS011;62667;48.698;8.762;2024-02-15T03:23:58;2.90;;;2.10;;
10867;SDS011;62667;48.698;8.762;2024-02-15T03:26:29;3.83;;;1.87;;
10867;SDS011;62667;48.698;8.762;2024-02-15T03:29:02;2.40;;;2.00;;
10867;SDS011;62667;48.698;8.762;2024-02-15T03:31:28;2.90;;;2.37;;
10867;SDS011;62667;48.698;8.762;2024-02-15T03:33:57;2.90;;;1.87;;
10867;SDS011;62667;48.698;8.762;2024-02-15T03:36:24;1.90;;;1.80;;
10867;SDS011;62667;48.698;8.762;2024-02-15T03:38:51;2.43;;;1.90;;
10867;SDS011;62667;48.698;8.762;2024-02-15T03:41:18;5.03;;;1.83;;
10867;SDS011;62667;48.698;8.762;2024-02-15T03:43:45;1.50;;;1.40;;
10867;SDS011;62667;48.698;8.762;2024-02-15T03:46:12;2.13;;;1.60;;
10867;SDS011;62667;48.698;8.762;2024-02-15T03:48:40;3.40;;;2.10;;
10867;SDS011;62667;48.698;8.762;2024-02-15T03:51:10;2.37;;;1.70;;
10867;SDS011;62667;48.698;8.762;2024-02-15T03:53:37;4.77;;;2.50;;
10867;SDS011;62667;48.698;8.762;2024-02-15T03:56:04;6.93;;;2.00;;
10867;SDS011;62667;48.698;8.762;2024-02-15T03:58:31;3.53;;;1.90;;
10867;SDS011;62667;48.698;8.762;2024-02-15T04:00:58;1.60;;;1.50;;
10867;SDS011;62667;48.698;8.762;2024-02-15T04:03:24;2.20;;;1.50;;
10867;SDS011;62667;48.698;8.762;2024-02-15T04:05:51;3.30;;;1.83;;
10867;SDS011;62667;48.698;8.762;2024-02-15T04:08:19;2.13;;;1.93;;
10867;SDS011;62667;48.698;8.762;2024-02-15T04:10:46;2.30;;;2.10;;
10867;SDS011;62667;48.698;8.762;2024-02-15T04:13:12;2.10;;;1.90;;
10867;SDS011;62667;48.698;8.762;2024-02-15T04:15:39;1.60;;;1.50;;
10867;SDS011;62667;48.698;8.762;2024-02-15T04:18:06;4.83;;;2.10;;
10867;SDS011;62667;48.698;8.762;2024-02-15T04:20:33;2.57;;;1.47;;
10867;SDS011;62667;48.698;8.762;2024-02-15T04:23:00;2.40;;;2.07;;
10867;SDS011;62667;48.698;8.762;2024-02-15T04:25:28;1.60;;;1.50;;
10867;SDS011;62667;48.698;8.762;2024-02-15T04:27:56;1.53;;;1.40;;
10867;SDS011;62667;48.698;8.762;2024-02-15T04:30:24;1.60;;;1.50;;
10867;SDS011;62667;48.698;8.762;2024-02-15T04:32:51;2.03;;;1.50;;
10867;SDS011;62667;48.698;8.762;2024-02-15T04:35:18;1.77;;;1.50;;
10867;SDS011;62667;48.698;8.762;2024-02-15T04:37:44;1.70;;;1.60;;
10867;SDS011;62667;48.698;8.762;2024-02-15T04:40:12;6.30;;;2.13;;
10867;SDS011;62667;48.698;8.762;2024-02-15T04:42:40;2.70;;;1.70;;
10867;SDS011;62667;48.698;8.762;2024-02-15T04:45:09;1.93;;;1.60;;
10867;SDS011;62667;48.698;8.762;2024-02-15T04:47:38;2.43;;;1.40;;
10867;SDS011;62667;48.698;8.762;2024-02-15T04:50:06;1.50;;;1.40;;
10867;SDS011;62667;48.698;8.762;2024-02-15T04:52:35;1.50;;;1.40;;
10867;SDS011;62667;48.698;8.762;2024-02-15T04:55:02;1.57;;;1.47;;
10867;SDS011;62667;48.698;8.762;2024-02-15T04:57:30;2.90;;;1.60;;
10867;SDS011;62667;48.698;8.762;2024-02-15T05:00:03;1.73;;;1.60;;
10867;SDS011;62667;48.698;8.762;2024-02-15T05:02:35;7.07;;;3.73;;
10867;SDS011;62667;48.698;8.762;2024-02-15T05:05:05;4.10;;;2.77;;
10867;SDS011;62667;48.698;8.762;2024-02-15T05:07:33;3.00;;;1.80;;
10867;SDS011;62667;48.698;8.762;2024-02-15T05:09:59;1.93;;;1.70;;
10867;SDS011;62667;48.698;8.762;2024-02-15T05:12:31;1.90;;;1.50;;
10867;SDS011;62667;48.698;8.762;2024-02-15T05:14:58;2.50;;;1.60;;
10867;SDS011;62667;48.698;8.762;2024-02-15T05:17:26;2.17;;;1.70;;
10867;SDS011;62667;48.698;8.762;2024-02-15T05:19:57;2.00;;;1.63;;
10867;SDS011;62667;48.698;8.762;2024-02-15T05:22:24;2.00;;;1.53;;
10867;SDS011;62667;48.698;8.762;2024-02-15T05:24:54;14.90;;;12.50;;
10867;SDS011;62667;48.698;8.762;2024-02-15T05:27:20;5.47;;;3.03;;
10867;SDS011;62667;48.698;8.762;2024-02-15T05:29:48;2.43;;;1.97;;
10867;SDS011;62667;48.698;8.762;2024-02-15T05:32:18;3.47;;;2.20;;
10867;SDS011;62667;48.698;8.762;2024-02-15T05:34:46;2.47;;;1.70;;
10867;SDS011;62667;48.698;8.762;2024-02-15T05:37:13;2.13;;;1.40;;
10867;SDS011;62667;48.698;8.762;2024-02-15T05:39:40;2.00;;;1.37;;
10867;SDS011;62667;48.698;8.762;2024-02-15T05:42:07;1.60;;;1.50;;
10867;SDS011;62667;48.698;8.762;2024-02-15T05:44:35;4.77;;;1.43;;
10867;SDS011;62667;48.698;8.762;2024-02-15T05:47:03;4.17;;;1.80;;
10867;SDS011;62667;48.698;8.762;2024-02-15T05:49:30;4.20;;;1.53;;
10867;SDS011;62667;48.698;8.762;2024-02-15T05:51:59;2.10;;;1.60;;
10867;SDS011;62667;48.698;8.762;2024-02-15T05:54:26;1.37;;;1.27;;
10867;SDS011;62667;48.698;8.762;2024-02-15T05:56:52;1.73;;;1.50;;
10867;SDS011;62667;48.698;8.762;2024-02-15T05:59:20;2.13;;;1.60;;
10867;SDS011;62667;48.698;8.762;2024-02-15T06:01:47;11.93;;;7.50;;
10867;SDS011;62667;48.698;8.762;2024-02-15T06:04:16;9.80;;;4.53;;
10867;SDS011;62667;48.698;8.762;2024-02-15T06:06:43;5.20;;;3.07;;
10867;SDS011;62667;48.698;8.762;2024-02-15T06:09:15;6.63;;;3.77;;
10867;SDS011;62667;48.698;8.762;2024-02-15T06:11:41;4.10;;;3.70;;
10867;SDS011;62667;48.698;8.762;2024-02-15T06:14:10;4.80;;;2.10;;
10867;SDS011;62667;48.698;8.762;2024-02-15T06:16:41;2.17;;;1.93;;
10867;SDS011;62667;48.698;8.762;2024-02-15T06:19:08;3.53;;;2.30;;
10867;SDS011;62667;48.698;8.762;2024-02-15T06:21:34;2.57;;;2.10;;
10867;SDS011;62667;48.698;8.762;2024-02-15T06:24:02;2.70;;;2.10;;
10867;SDS011;62667;48.698;8.762;2024-02-15T06:26:30;1.70;;;1.60;;
10867;SDS011;62667;48.698;8.762;2024-02-15T06:28:57;2.07;;;1.80;;
10867;SDS011;62667;48.698;8.762;2024-02-15T06:31:46;2.37;;;2.10;;
10867;SDS011;62667;48.698;8.762;2024-02-15T06:34:31;5.33;;;3.00;;
10867;SDS011;62667;48.698;8.762;2024-02-15T06:40:20;2.07;;;1.87;;
10867;SDS011;62667;48.698;8.762;2024-02-15T06:42:49;8.33;;;2.30;;
10867;SDS011;62667;48.698;8.762;2024-02-15T06:45:16;13.20;;;3.53;;
10867;SDS011;62667;48.698;8.762;2024-02-15T06:47:43;14.20;;;6.77;;
10867;SDS011;62667;48.698;8.762;2024-02-15T06:50:10;27.17;;;4.77;;
10867;SDS011;62667;48.698;8.762;2024-02-15T06:52:37;9.80;;;3.87;;
10867;SDS011;62667;48.698;8.762;2024-02-15T06:55:06;50.50;;;6.10;;
10867;SDS011;62667;48.698;8.762;2024-02-15T06:57:33;95.37;;;7.57;;
10867;SDS011;62667;48.698;8.762;2024-02-15T07:00:02;113.13;;;11.77;;
10867;SDS011;62667;48.698;8.762;2024-02-15T07:02:29;119.57;;;16.30;;
10867;SDS011;62667;48.698;8.762;2024-02-15T07:04:57;162.73;;;11.57;;
10867;SDS011;62667;48.698;8.762;2024-02-15T07:07:24;249.10;;;24.17;;
10867;SDS011;62667;48.698;8.762;2024-02-15T07:09:51;128.80;;;13.43;;
10867;SDS011;62667;48.698;8.762;2024-02-15T07:12:17;57.57;;;8.50;;
10867;SDS011;62667;48.698;8.762;2024-02-15T07:14:46;6.73;;;4.57;;
10867;SDS011;62667;48.698;8.762;2024-02-15T07:17:14;9.13;;;4.43;;
10867;SDS011;62667;48.698;8.762;2024-02-15T07:19:42;5.27;;;3.73;;
10867;SDS011;62667;48.698;8.762;2024-02-15T07:22:09;11.63;;;4.00;;
10867;SDS011;62667;48.698;8.762;2024-02-15T07:24:36;35.00;;;5.93;;
10867;SDS011;62667;48.698;8.762;2024-02-15T07:27:03;24.10;;;4.57;;
10867;SDS011;62667;48.698;8.762;2024-02-15T07:29:33;31.63;;;4.53;;
10867;SDS011;62667;48.698;8.762;2024-02-15T07:32:02;13.07;;;2.70;;
10867;SDS011;62667;48.698;8.762;2024-02-15T07:34:31;7.53;;;3.03;;
10867;SDS011;62667;48.698;8.762;2024-02-15T07:37:01;1.97;;;1.83;;
10867;SDS011;62667;48.698;8.762;2024-02-15T07:39:28;3.33;;;2.37;;
10867;SDS011;62667;48.698;8.762;2024-02-15T07:41:55;4.43;;;2.30;;
10867;SDS011;62667;48.698;8.762;2024-02-15T07:44:25;2.30;;;2.00;;
10867;SDS011;62667;48.698;8.762;2024-02-15T07:46:55;4.37;;;3.00;;
10867;SDS011;62667;48.698;8.762;2024-02-15T07:49:21;4.90;;;2.50;;
10867;SDS011;62667;48.698;8.762;2024-02-15T07:51:49;13.10;;;2.10;;
10867;SDS011;62667;48.698;8.762;2024-02-15T07:54:18;9.93;;;2.13;;
10867;SDS011;62667;48.698;8.762;2024-02-15T07:56:46;3.67;;;2.60;;
10867;SDS011;62667;48.698;8.762;2024-02-15T07:59:13;12.40;;;2.60;;
10867;SDS011;62667;48.698;8.762;2024-02-15T08:01:41;11.80;;;2.43;;
10867;SDS011;62667;48.698;8.762;2024-02-15T08:04:08;7.13;;;2.60;;
10867;SDS011;62667;48.698;8.762;2024-02-15T08:06:35;6.33;;;2.73;;
10867;SDS011;62667;48.698;8.762;2024-02-15T08:09:04;7.47;;;3.70;;
10867;SDS011;62667;48.698;8.762;2024-02-15T08:11:31;7.83;;;3.70;;
10867;SDS011;62667;48.698;8.762;2024-02-15T08:13:58;9.40;;;4.23;;
10867;SDS011;62667;48.698;8.762;2024-02-15T08:16:25;8.97;;;3.83;;
10867;SDS011;62667;48.698;8.762;2024-02-15T08:18:52;7.57;;;4.43;;
10867;SDS011;62667;48.698;8.762;2024-02-15T08:21:24;7.83;;;4.97;;
10867;SDS011;62667;48.698;8.762;2024-02-15T08:23:52;7.47;;;4.57;;
10867;SDS011;62667;48.698;8.762;2024-02-15T08:26:20;8.53;;;3.90;;
10867;SDS011;62667;48.698;8.762;2024-02-15T08:28:47;5.60;;;3.77;;
10867;SDS011;62667;48.698;8.762;2024-02-15T08:31:13;9.13;;;3.43;;
10867;SDS011;62667;48.698;8.762;2024-02-15T08:33:41;5.27;;;3.20;;
10867;SDS011;62667;48.698;8.762;2024-02-15T08:36:08;6.30;;;3.33;;
10867;SDS011;62667;48.698;8.762;2024-02-15T08:38:35;8.30;;;4.23;;
10867;SDS011;62667;48.698;8.762;2024-02-15T08:41:02;6.63;;;4.07;;
10867;SDS011;62667;48.698;8.762;2024-02-15T08:43:31;6.97;;;5.20;;
10867;SDS011;62667;48.698;8.762;2024-02-15T08:45:58;9.17;;;3.90;;
10867;SDS011;62667;48.698;8.762;2024-02-15T08:48:27;6.40;;;4.27;;
10867;SDS011;62667;48.698;8.762;2024-02-15T08:50:55;8.07;;;4.20;;
10867;SDS011;62667;48.698;8.762;2024-02-15T08:53:22;8.13;;;4.83;;
10867;SDS011;62667;48.698;8.762;2024-02-15T08:55:49;8.23;;;4.00;;
10867;SDS011;62667;48.698;8.762;2024-02-15T08:58:18;4.43;;;3.03;;
10867;SDS011;62667;48.698;8.762;2024-02-15T09:00:49;7.13;;;3.50;;
10867;SDS011;62667;48.698;8.762;2024-02-15T09:03:15;5.33;;;3.13;;
10867;SDS011;62667;48.698;8.762;2024-02-15T09:05:44;2.83;;;2.57;;
10867;SDS011;62667;48.698;8.762;2024-02-15T09:08:12;3.50;;;2.80;;
10867;SDS011;62667;48.698;8.762;2024-02-15T09:10:40;3.67;;;3.13;;
10867;SDS011;62667;48.698;8.762;2024-02-15T09:13:07;4.57;;;2.83;;
10867;SDS011;62667;48.698;8.762;2024-02-15T09:15:34;5.97;;;3.20;;
10867;SDS011;62667;48.698;8.762;2024-02-15T09:18:02;3.30;;;2.83;;
10867;SDS011;62667;48.698;8.762;2024-02-15T09:20:30;4.57;;;3.20;;
10867;SDS011;62667;48.698;8.762;2024-02-15T09:22:58;5.67;;;3.57;;
10867;SDS011;62667;48.698;8.762;2024-02-15T09:25:32;3.97;;;3.07;;
10867;SDS011;62667;48.698;8.762;2024-02-15T09:27:59;5.20;;;3.03;;
10867;SDS011;62667;48.698;8.762;2024-02-15T09:30:25;7.17;;;3.30;;
10867;SDS011;62667;48.698;8.762;2024-02-15T09:32:53;3.87;;;3.13;;
10867;SDS011;62667;48.698;8.762;2024-02-15T09:35:24;5.73;;;3.10;;
10867;SDS011;62667;48.698;8.762;2024-02-15T09:37:51;4.10;;;2.80;;
10867;SDS011;62667;48.698;8.762;2024-02-15T09:40:20;5.27;;;3.03;;
10867;SDS011;62667;48.698;8.762;2024-02-15T09:42:53;3.33;;;2.60;;
10867;SDS011;62667;48.698;8.762;2024-02-15T09:45:20;4.57;;;2.60;;
10867;SDS011;62667;48.698;8.762;2024-02-15T09:47:50;4.43;;;2.83;;
10867;SDS011;62667;48.698;8.762;2024-02-15T09:50:18;2.73;;;2.40;;
10867;SDS011;62667;48.698;8.762;2024-02-15T09:52:47;4.77;;;2.87;;
10867;SDS011;62667;48.698;8.762;2024-02-15T09:55:15;5.50;;;2.40;;
10867;SDS011;62667;48.698;8.762;2024-02-15T09:57:44;4.00;;;2.73;;
10867;SDS011;62667;48.698;8.762;2024-02-15T10:00:12;3.17;;;2.40;;
10867;SDS011;62667;48.698;8.762;2024-02-15T10:02:40;3.60;;;2.43;;
10867;SDS011;62667;48.698;8.762;2024-02-15T10:05:09;2.80;;;2.40;;
10867;SDS011;62667;48.698;8.762;2024-02-15T10:07:39;3.43;;;2.23;;
10867;SDS011;62667;48.698;8.762;2024-02-15T10:10:15;3.87;;;2.27;;
10867;SDS011;62667;48.698;8.762;2024-02-15T10:12:44;1.93;;;1.50;;
10867;SDS011;62667;48.698;8.762;2024-02-15T10:15:26;2.47;;;1.87;;
10867;SDS011;62667;48.698;8.762;2024-02-15T10:17:54;3.63;;;1.90;;
10867;SDS011;62667;48.698;8.762;2024-02-15T10:20:21;2.40;;;1.63;;
10867;SDS011;62667;48.698;8.762;2024-02-15T10:22:51;2.20;;;1.87;;
10867;SDS011;62667;48.698;8.762;2024-02-15T10:25:21;2.03;;;1.80;;
10867;SDS011;62667;48.698;8.762;2024-02-15T10:27:48;2.90;;;1.93;;
10867;SDS011;62667;48.698;8.762;2024-02-15T10:32:44;4.40;;;1.93;;
10867;SDS011;62667;48.698;8.762;2024-02-15T10:35:15;5.60;;;1.87;;
10867;SDS011;62667;48.698;8.762;2024-02-15T10:37:45;3.27;;;1.77;;
10867;SDS011;62667;48.698;8.762;2024-02-15T10:40:14;3.07;;;1.97;;
10867;SDS011;62667;48.698;8.762;2024-02-15T10:42:45;3.70;;;1.80;;
10867;SDS011;62667;48.698;8.762;2024-02-15T10:45:13;2.97;;;2.07;;
10867;SDS011;62667;48.698;8.762;2024-02-15T10:47:44;2.17;;;1.60;;
10867;SDS011;62667;48.698;8.762;2024-02-15T10:50:11;2.77;;;1.70;;
10867;SDS011;62667;48.698;8.762;2024-02-15T10:52:41;2.63;;;1.40;;
10867;SDS011;62667;48.698;8.762;2024-02-15T10:55:19;1.90;;;1.40;;
10867;SDS011;62667;48.698;8.762;2024-02-15T10:57:53;3.73;;;1.60;;
10867;SDS011;62667;48.698;8.762;2024-02-15T11:00:24;1.53;;;1.43;;
10867;SDS011;62667;48.698;8.762;2024-02-15T11:02:59;2.03;;;1.53;;
10867;SDS011;62667;48.698;8.762;2024-02-15T11:05:31;2.27;;;1.63;;
10867;SDS011;62667;48.698;8.762;2024-02-15T11:08:03;2.10;;;1.60;;
10867;SDS011;62667;48.698;8.762;2024-02-15T11:10:32;3.30;;;1.60;;
10867;SDS011;62667;48.698;8.762;2024-02-15T11:13:00;2.90;;;1.53;;
10867;SDS011;62667;48.698;8.762;2024-02-15T11:15:40;4.97;;;1.70;;
10867;SDS011;62667;48.698;8.762;2024-02-15T11:18:27;3.20;;;1.90;;
10867;SDS011;62667;48.698;8.762;2024-02-15T11:21:09;2.00;;;1.80;;
10867;SDS011;62667;48.698;8.762;2024-02-15T11:23:36;2.13;;;1.60;;
10867;SDS011;62667;48.698;8.762;2024-02-15T11:29:04;3.90;;;1.60;;
10867;SDS011;62667;48.698;8.762;2024-02-15T11:40:12;2.10;;;1.47;;
10867;SDS011;62667;48.698;8.762;2024-02-15T11:42:39;2.27;;;1.60;;
10867;SDS011;62667;48.698;8.762;2024-02-15T11:45:07;1.70;;;1.60;;
10867;SDS011;62667;48.698;8.762;2024-02-15T11:47:36;2.53;;;1.90;;
10867;SDS011;62667;48.698;8.762;2024-02-15T11:50:04;1.60;;;1.50;;
10867;SDS011;62667;48.698;8.762;2024-02-15T11:52:33;1.77;;;1.57;;
10867;SDS011;62667;48.698;8.762;2024-02-15T11:55:06;2.80;;;1.37;;
10867;SDS011;62667;48.698;8.762;2024-02-15T11:57:36;3.97;;;1.60;;
10867;SDS011;62667;48.698;8.762;2024-02-15T12:00:23;2.07;;;1.63;;
10867;SDS011;62667;48.698;8.762;2024-02-15T12:03:08;1.70;;;1.60;;
10867;SDS011;62667;48.698;8.762;2024-02-15T12:05:52;3.50;;;1.50;;
10867;SDS011;62667;48.698;8.762;2024-02-15T12:08:37;2.27;;;1.70;;
10867;SDS011;62667;48.698;8.762;2024-02-15T12:11:22;1.80;;;1.63;;
10867;SDS011;62667;48.698;8.762;2024-02-15T12:14:06;3.30;;;1.67;;
10867;SDS011;62667;48.698;8.762;2024-02-15T12:17:01;2.83;;;1.87;;
10867;SDS011;62667;48.698;8.762;2024-02-15T12:19:47;1.93;;;1.70;;
10867;SDS011;62667;48.698;8.762;2024-02-15T12:22:15;3.27;;;1.73;;
10867;SDS011;62667;48.698;8.762;2024-02-15T12:24:52;3.23;;;1.93;;
10867;SDS011;62667;48.698;8.762;2024-02-15T12:27:20;2.47;;;1.90;;
10867;SDS011;62667;48.698;8.762;2024-02-15T12:29:52;1.70;;;1.50;;
10867;SDS011;62667;48.698;8.762;2024-02-15T12:32:21;3.77;;;1.60;;
10867;SDS011;62667;48.698;8.762;2024-02-15T12:34:48;2.97;;;1.90;;
10867;SDS011;62667;48.698;8.762;2024-02-15T12:37:17;1.97;;;1.50;;
10867;SDS011;62667;48.698;8.762;2024-02-15T12:39:46;1.90;;;1.60;;
10867;SDS011;62667;48.698;8.762;2024-02-15T12:42:13;2.10;;;1.70;;
10867;SDS011;62667;48.698;8.762;2024-02-15T12:44:43;2.37;;;1.80;;
10867;SDS011;62667;48.698;8.762;2024-02-15T12:47:22;4.43;;;1.80;;
10867;SDS011;62667;48.698;8.762;2024-02-15T12:49:50;4.07;;;1.60;;
10867;SDS011;62667;48.698;8.762;2024-02-15T12:52:33;2.60;;;1.93;;
10867;SDS011;62667;48.698;8.762;2024-02-15T12:55:07;3.60;;;1.60;;
10867;SDS011;62667;48.698;8.762;2024-02-15T12:57:41;3.63;;;1.60;;
10867;SDS011;62667;48.698;8.762;2024-02-15T13:00:10;2.43;;;1.73;;
10867;SDS011;62667;48.698;8.762;2024-02-15T13:02:44;3.13;;;1.50;;
10867;SDS011;62667;48.698;8.762;2024-02-15T13:05:11;2.10;;;1.50;;
10867;SDS011;62667;48.698;8.762;2024-02-15T13:07:39;5.03;;;1.90;;
10867;SDS011;62667;48.698;8.762;2024-02-15T13:10:06;2.33;;;1.80;;
10867;SDS011;62667;48.698;8.762;2024-02-15T13:12:33;2.90;;;1.70;;
10867;SDS011;62667;48.698;8.762;2024-02-15T13:15:01;3.97;;;1.53;;
10867;SDS011;62667;48.698;8.762;2024-02-15T13:17:30;4.43;;;2.00;;
10867;SDS011;62667;48.698;8.762;2024-02-15T13:20:00;2.83;;;2.00;;
10867;SDS011;62667;48.698;8.762;2024-02-15T13:22:30;2.17;;;1.63;;
10867;SDS011;62667;48.698;8.762;2024-02-15T13:25:00;2.20;;;1.73;;
10867;SDS011;62667;48.698;8.762;2024-02-15T13:27:28;3.93;;;1.60;;
10867;SDS011;62667;48.698;8.762;2024-02-15T13:29:57;2.40;;;2.03;;
10867;SDS011;62667;48.698;8.762;2024-02-15T13:32:24;2.70;;;2.10;;
10867;SDS011;62667;48.698;8.762;2024-02-15T13:34:50;2.57;;;1.70;;
10867;SDS011;62667;48.698;8.762;2024-02-15T13:37:22;3.40;;;1.83;;
10867;SDS011;62667;48.698;8.762;2024-02-15T13:39:49;3.27;;;1.90;;
10867;SDS011;62667;48.698;8.762;2024-02-15T13:42:16;4.43;;;2.13;;
10867;SDS011;62667;48.698;8.762;2024-02-15T13:44:44;4.27;;;1.80;;
10867;SDS011;62667;48.698;8.762;2024-02-15T13:47:11;2.33;;;1.83;;
10867;SDS011;62667;48.698;8.762;2024-02-15T13:49:37;2.53;;;2.13;;
10867;SDS011;62667;48.698;8.762;2024-02-15T13:52:04;3.53;;;2.37;;
10867;SDS011;62667;48.698;8.762;2024-02-15T13:54:33;4.20;;;1.93;;
10867;SDS011;62667;48.698;8.762;2024-02-15T13:57:00;2.53;;;1.90;;
10867;SDS011;62667;48.698;8.762;2024-02-15T13:59:30;1.80;;;1.70;;
10867;SDS011;62667;48.698;8.762;2024-02-15T14:01:56;3.80;;;1.90;;
10867;SDS011;62667;48.698;8.762;2024-02-15T14:04:23;3.83;;;2.10;;
10867;SDS011;62667;48.698;8.762;2024-02-15T14:06:53;2.13;;;1.90;;
10867;SDS011;62667;48.698;8.762;2024-02-15T14:09:21;2.80;;;1.80;;
10867;SDS011;62667;48.698;8.762;2024-02-15T14:11:52;4.13;;;1.90;;
10867;SDS011;62667;48.698;8.762;2024-02-15T14:14:20;3.63;;;1.63;;
10867;SDS011;62667;48.698;8.762;2024-02-15T14:16:47;2.70;;;1.60;;
10867;SDS011;62667;48.698;8.762;2024-02-15T14:19:13;2.23;;;1.83;;
10867;SDS011;62667;48.698;8.762;2024-02-15T14:21:40;5.30;;;2.17;;
10867;SDS011;62667;48.698;8.762;2024-02-15T14:24:10;4.70;;;1.70;;
10867;SDS011;62667;48.698;8.762;2024-02-15T14:26:36;1.83;;;1.70;;
10867;SDS011;62667;48.698;8.762;2024-02-15T14:29:04;3.17;;;1.80;;
10867;SDS011;62667;48.698;8.762;2024-02-15T14:31:31;3.63;;;1.87;;
10867;SDS011;62667;48.698;8.762;2024-02-15T14:34:15;1.90;;;1.50;;
10867;SDS011;62667;48.698;8.762;2024-02-15T14:36:45;2.37;;;1.90;;
10867;SDS011;62667;48.698;8.762;2024-02-15T14:39:12;4.65;;;2.10;;
10867;SDS011;62667;48.698;8.762;2024-02-15T14:41:39;9.47;;;2.00;;
10867;SDS011;62667;48.698;8.762;2024-02-15T14:44:10;1.67;;;1.57;;
10867;SDS011;62667;48.698;8.762;2024-02-15T14:46:38;3.27;;;1.93;;
10867;SDS011;62667;48.698;8.762;2024-02-15T14:49:05;2.80;;;2.00;;
10867;SDS011;62667;48.698;8.762;2024-02-15T14:51:33;1.67;;;1.57;;
10867;SDS011;62667;48.698;8.762;2024-02-15T14:54:02;2.87;;;1.80;;
10867;SDS011;62667;48.698;8.762;2024-02-15T14:56:29;1.97;;;1.57;;
10867;SDS011;62667;48.698;8.762;2024-02-15T14:58:57;3.70;;;2.03;;
10867;SDS011;62667;48.698;8.762;2024-02-15T15:01:26;5.10;;;2.10;;
10867;SDS011;62667;48.698;8.762;2024-02-15T15:03:54;4.27;;;1.90;;
10867;SDS011;62667;48.698;8.762;2024-02-15T15:06:24;5.10;;;2.20;;
10867;SDS011;62667;48.698;8.762;2024-02-15T15:09:08;3.17;;;2.23;;
10867;SDS011;62667;48.698;8.762;2024-02-15T15:11:52;2.83;;;1.90;;
10867;SDS011;62667;48.698;8.762;2024-02-15T15:14:37;2.33;;;2.07;;